Main page
METAR-TAF:

METAR-TAF

Airports :

Mariehamn Airport

Mariehamn, Finland

latitude: 60-07N, longitude: 019-54E, elevation: 6 m

Current weather observation

The report was made 28 minutes ago, at 19:50 UTC
Calm wind
Temperature 0°C
Humidity 100%
Pressure 1022 hPa
Visibility: 0500 m
Clear sky
freezing fog

METAR: EFMA 201950Z AUTO 00000KT 0500 R21/0725VP1500D R03/0575VP1500U FZFG SKC M00/M00 Q1022

Time: 23:18 (20:18 UTC)

Forecast

The report was made 54 minutes ago, at 19:24 UTC
Forecast valid from 20 at 19 UTC to 21 at 03 UTC
Wind 4 kt from the West/Southwest
Visibility: 5000 m
Few clouds at a height of 300 ft
mist
Temporary
from 20 at 19 UTC to 20 at 24 UTC
Visibility: 0600 m
fog

TAF: EFMA 201924Z 2019/2103 25004KT 5000 BR FEW003 TEMPO 2019/2024 0600 FG

Weather observations and forecasts of more than 4000 airports (METAR and TAF reports).

The available stations are represented by yellow and red dots on the map.

Hover mouse over dot to see the name of the station.

Then click to see weather observations and forecasts.

To change the map : click on the green buttons with a black cross to zoom in, on the green button with a dash to zoom out, or on the green arrows for adjacent maps.


METAR-TAF: